createdAt,value
2023-02-19T00:00:05.654Z,11.77
2023-02-19T00:00:38.215Z,11.79
2023-02-19T00:01:16.234Z,11.80
2023-02-19T00:01:48.299Z,11.77
2023-02-19T00:02:20.076Z,11.71
2023-02-19T00:02:52.844Z,11.74
2023-02-19T00:03:24.714Z,11.76
2023-02-19T00:04:02.136Z,11.80
2023-02-19T00:04:33.814Z,11.80
2023-02-19T00:05:05.817Z,11.77
2023-02-19T00:05:37.425Z,11.77
2023-02-19T00:06:11.275Z,11.76
2023-02-19T00:06:44.007Z,11.74
2023-02-19T00:07:15.620Z,11.81
2023-02-19T00:07:47.213Z,11.79
2023-02-19T00:08:18.880Z,11.80
2023-02-19T00:08:50.843Z,11.77
2023-02-19T00:09:22.545Z,11.80
2023-02-19T00:09:54.166Z,11.79
2023-02-19T00:10:25.842Z,11.76
2023-02-19T00:11:08.757Z,11.70
2023-02-19T00:11:40.935Z,11.67
2023-02-19T00:12:12.626Z,11.69
2023-02-19T00:12:44.227Z,11.69
2023-02-19T00:13:15.835Z,11.70
2023-02-19T00:13:49.988Z,11.69
2023-02-19T00:14:21.995Z,11.73
2023-02-19T00:14:55.329Z,11.74
2023-02-19T00:15:27.112Z,11.73
2023-02-19T00:15:58.830Z,11.74
2023-02-19T00:16:40.084Z,11.74
2023-02-19T00:17:11.724Z,11.73
2023-02-19T00:17:43.331Z,11.76
2023-02-19T00:18:14.936Z,11.80
2023-02-19T00:18:47.101Z,11.83
2023-02-19T00:19:20.634Z,11.81
2023-02-19T00:19:52.305Z,11.79
2023-02-19T00:20:23.894Z,11.79
2023-02-19T00:20:56.744Z,11.79
2023-02-19T00:21:29.478Z,11.77
2023-02-19T00:22:01.298Z,11.77
2023-02-19T00:22:32.880Z,11.76
2023-02-19T00:23:04.484Z,11.66
2023-02-19T00:23:36.358Z,11.66
2023-02-19T00:24:08.703Z,11.65
2023-02-19T00:24:40.397Z,11.79
2023-02-19T00:25:12.012Z,11.77
2023-02-19T00:25:43.725Z,11.81
2023-02-19T00:26:18.472Z,11.81
2023-02-19T00:26:50.588Z,11.81
2023-02-19T00:27:22.238Z,11.87
2023-02-19T00:27:53.861Z,11.84
2023-02-19T00:28:25.448Z,11.88
2023-02-19T00:28:58.055Z,11.87
2023-02-19T00:29:29.863Z,11.86
2023-02-19T00:30:01.650Z,11.91
2023-02-19T00:30:33.410Z,11.88
2023-02-19T00:31:20.806Z,11.88
2023-02-19T00:31:52.552Z,11.90
2023-02-19T00:32:24.217Z,11.90
2023-02-19T00:32:55.806Z,11.90
2023-02-19T00:33:29.657Z,11.87
2023-02-19T00:34:04.022Z,11.84
2023-02-19T00:34:36.451Z,11.93
2023-02-19T00:35:08.258Z,11.88
2023-02-19T00:35:39.907Z,11.87
2023-02-19T00:36:12.335Z,11.86
2023-02-19T00:36:44.066Z,11.87
2023-02-19T00:37:15.748Z,11.90
2023-02-19T00:37:47.390Z,11.87
2023-02-19T00:38:19.359Z,11.86
2023-02-19T00:38:51.525Z,11.84
2023-02-19T00:39:23.166Z,11.86
2023-02-19T00:39:54.895Z,11.84
2023-02-19T00:40:26.550Z,11.81
2023-02-19T00:41:01.078Z,11.79
2023-02-19T00:41:33.047Z,11.76
2023-02-19T00:42:04.925Z,11.76
2023-02-19T00:42:36.525Z,11.76
2023-02-19T00:43:08.174Z,11.77
2023-02-19T00:43:39.910Z,11.76
2023-02-19T00:44:12.557Z,11.69
2023-02-19T00:44:44.206Z,11.70
2023-02-19T00:45:15.767Z,11.60
2023-02-19T00:45:47.440Z,11.56
2023-02-19T00:46:25.094Z,11.55
2023-02-19T00:46:56.870Z,11.55
2023-02-19T00:47:28.498Z,11.56
2023-02-19T00:48:00.137Z,11.53
2023-02-19T00:48:31.982Z,11.52
2023-02-19T00:49:05.486Z,11.49
2023-02-19T00:49:37.186Z,11.42
2023-02-19T00:50:09.314Z,11.44
2023-02-19T00:50:40.967Z,11.43
2023-02-19T00:51:13.211Z,11.40
2023-02-19T00:51:44.867Z,11.43
2023-02-19T00:52:16.615Z,11.40
2023-02-19T00:52:48.265Z,11.38
2023-02-19T00:53:19.894Z,11.39
2023-02-19T00:53:51.560Z,11.38
2023-02-19T00:54:23.373Z,11.39
2023-02-19T00:54:54.940Z,11.36
2023-02-19T00:55:26.623Z,11.35
2023-02-19T00:55:58.252Z,11.35
2023-02-19T00:56:29.930Z,11.35
2023-02-19T00:57:01.697Z,11.39
2023-02-19T00:57:33.679Z,11.39
2023-02-19T00:58:05.401Z,11.44
2023-02-19T00:58:37.139Z,11.44
2023-02-19T00:59:09.054Z,11.44
2023-02-19T00:59:40.765Z,11.52
2023-02-19T01:00:12.969Z,11.52
2023-02-19T01:00:44.591Z,11.50
2023-02-19T01:01:17.061Z,11.50
2023-02-19T01:01:49.822Z,11.50
2023-02-19T01:02:21.785Z,11.47
2023-02-19T01:02:53.402Z,11.46
2023-02-19T01:03:25.196Z,11.49
2023-02-19T01:03:57.195Z,11.46
2023-02-19T01:04:28.844Z,11.49
2023-02-19T01:05:00.630Z,11.49
2023-02-19T01:05:32.284Z,11.52
2023-02-19T01:06:05.615Z,11.50
2023-02-19T01:06:37.554Z,11.50
2023-02-19T01:07:10.183Z,11.53
2023-02-19T01:07:41.795Z,11.52
2023-02-19T01:08:13.466Z,11.46
2023-02-19T01:08:45.727Z,11.44
2023-02-19T01:09:17.436Z,11.44
2023-02-19T01:09:49.120Z,11.46
2023-02-19T01:10:20.806Z,11.44
2023-02-19T01:10:52.490Z,11.40
2023-02-19T01:11:24.420Z,11.39
2023-02-19T01:11:56.024Z,11.32
2023-02-19T01:12:28.240Z,11.35
2023-02-19T01:12:59.866Z,11.32
2023-02-19T01:13:32.321Z,11.33
2023-02-19T01:14:05.045Z,11.33
2023-02-19T01:14:36.780Z,11.33
2023-02-19T01:15:08.930Z,11.30
2023-02-19T01:15:40.645Z,11.33
2023-02-19T01:16:20.799Z,11.32
2023-02-19T01:16:52.460Z,11.26
2023-02-19T01:17:24.479Z,11.28
2023-02-19T01:17:56.050Z,11.30
2023-02-19T01:18:27.609Z,11.30
2023-02-19T01:18:59.252Z,11.33
2023-02-19T01:19:30.969Z,11.30
2023-02-19T01:20:02.612Z,11.26
2023-02-19T01:20:34.524Z,11.26
2023-02-19T01:21:12.763Z,11.30
2023-02-19T01:21:44.381Z,11.30
2023-02-19T01:22:16.830Z,11.32
2023-02-19T01:22:48.421Z,11.32
2023-02-19T01:23:20.001Z,11.32
2023-02-19T01:23:52.993Z,11.33
2023-02-19T01:24:24.609Z,11.32
2023-02-19T01:24:56.250Z,11.33
2023-02-19T01:25:27.886Z,11.35
2023-02-19T01:25:59.474Z,11.40
2023-02-19T01:26:32.499Z,11.38
2023-02-19T01:27:04.126Z,11.40
2023-02-19T01:27:35.794Z,11.35
2023-02-19T01:28:08.364Z,11.32
2023-02-19T01:28:40.311Z,11.30
2023-02-19T01:29:11.925Z,11.28
2023-02-19T01:29:43.689Z,11.23
2023-02-19T01:30:15.435Z,11.25
2023-02-19T01:30:47.180Z,11.25
2023-02-19T01:31:24.170Z,11.30
2023-02-19T01:31:56.076Z,11.30
2023-02-19T01:32:28.190Z,11.30
2023-02-19T01:32:59.764Z,11.29
2023-02-19T01:33:31.977Z,11.33
2023-02-19T01:34:04.768Z,11.30
2023-02-19T01:34:36.325Z,11.35
2023-02-19T01:35:08.184Z,11.36
2023-02-19T01:35:40.609Z,11.40
2023-02-19T01:36:12.646Z,11.40
2023-02-19T01:36:44.399Z,11.42
2023-02-19T01:37:16.399Z,11.47
2023-02-19T01:37:48.018Z,11.49
2023-02-19T01:38:19.646Z,11.52
2023-02-19T01:38:51.436Z,11.52
2023-02-19T01:39:23.066Z,11.55
2023-02-19T01:39:54.813Z,11.56
2023-02-19T01:40:26.941Z,11.56
2023-02-19T01:41:01.899Z,11.56
2023-02-19T01:41:38.076Z,11.60
2023-02-19T01:42:16.529Z,11.58
2023-02-19T01:42:48.529Z,11.59
2023-02-19T01:43:20.196Z,11.60
2023-02-19T01:44:17.173Z,11.62
2023-02-19T01:44:48.818Z,11.62
2023-02-19T01:45:29.315Z,11.58
2023-02-19T01:46:01.468Z,11.56
2023-02-19T01:46:38.057Z,11.58
2023-02-19T01:47:09.763Z,11.58
2023-02-19T01:47:41.452Z,11.62
2023-02-19T01:48:21.076Z,11.60
2023-02-19T01:48:54.226Z,11.59
2023-02-19T01:49:31.848Z,11.60
2023-02-19T01:50:03.487Z,11.65
2023-02-19T01:50:46.177Z,11.59
2023-02-19T01:51:19.283Z,11.58
2023-02-19T01:51:58.405Z,11.65
2023-02-19T01:52:34.430Z,11.66
2023-02-19T01:53:08.964Z,11.69
2023-02-19T01:53:45.391Z,11.69
2023-02-19T01:54:19.857Z,11.65
2023-02-19T01:54:52.259Z,11.70
2023-02-19T01:55:24.271Z,11.70
2023-02-19T01:55:59.992Z,11.63
2023-02-19T01:56:34.241Z,11.65
2023-02-19T01:57:12.155Z,11.62
2023-02-19T01:57:48.330Z,11.62
2023-02-19T01:58:20.178Z,11.62
2023-02-19T01:58:52.226Z,11.60
2023-02-19T01:59:23.941Z,11.56
2023-02-19T02:00:01.870Z,11.53
2023-02-19T02:00:34.196Z,11.53
2023-02-19T02:01:07.773Z,11.53
2023-02-19T02:01:40.275Z,11.52
2023-02-19T02:02:12.461Z,11.53
2023-02-19T02:02:48.865Z,11.55
2023-02-19T02:03:21.127Z,11.44
2023-02-19T02:03:53.456Z,11.39
2023-02-19T02:04:25.105Z,11.40
2023-02-19T02:05:00.215Z,11.39
2023-02-19T02:05:57.625Z,11.39
2023-02-19T02:06:34.388Z,11.38
2023-02-19T02:07:29.869Z,11.30
2023-02-19T02:08:21.720Z,11.30
2023-02-19T02:09:14.610Z,11.32
2023-02-19T02:10:12.601Z,11.33
2023-02-19T02:10:44.627Z,11.32
2023-02-19T02:11:17.184Z,11.26
2023-02-19T02:11:51.797Z,11.29
2023-02-19T02:12:23.435Z,11.28
2023-02-19T02:12:57.906Z,11.26
2023-02-19T02:13:30.165Z,11.23
2023-02-19T02:14:03.142Z,11.26
2023-02-19T02:14:37.869Z,11.21
2023-02-19T02:15:10.130Z,11.19
2023-02-19T02:16:10.989Z,11.11
2023-02-19T02:16:53.292Z,11.16
2023-02-19T02:17:28.955Z,11.12
2023-02-19T02:18:08.788Z,11.12
2023-02-19T02:18:58.228Z,11.19
2023-02-19T02:20:00.722Z,11.11
2023-02-19T02:20:44.710Z,11.14
2023-02-19T02:21:53.466Z,11.16
2023-02-19T02:22:58.122Z,11.09
2023-02-19T02:23:56.276Z,11.15
2023-02-19T02:24:56.875Z,11.22
2023-02-19T02:25:34.679Z,11.19
2023-02-19T02:26:31.349Z,11.21
2023-02-19T02:27:16.665Z,11.18
2023-02-19T02:27:54.267Z,11.19
2023-02-19T02:28:36.736Z,11.21
2023-02-19T02:29:29.999Z,11.28
2023-02-19T02:30:30.306Z,11.21
2023-02-19T02:31:42.625Z,11.22
2023-02-19T02:32:21.500Z,11.19
2023-02-19T02:33:25.411Z,11.22
2023-02-19T02:34:04.086Z,11.22
2023-02-19T02:34:48.732Z,11.19
2023-02-19T02:35:34.755Z,11.11
2023-02-19T02:36:24.219Z,11.16
2023-02-19T02:36:56.899Z,11.18
2023-02-19T02:37:33.377Z,11.19
2023-02-19T02:38:10.187Z,11.19
2023-02-19T02:38:44.151Z,11.18
2023-02-19T02:39:19.621Z,11.19
2023-02-19T02:39:52.532Z,11.21
2023-02-19T02:40:24.261Z,11.19
2023-02-19T02:40:56.952Z,11.21
2023-02-19T02:41:28.933Z,11.19
2023-02-19T02:42:19.077Z,11.22
2023-02-19T02:42:50.662Z,11.19
2023-02-19T02:43:22.667Z,11.15
2023-02-19T02:43:54.336Z,11.12
2023-02-19T02:44:35.187Z,11.15
2023-02-19T02:45:36.896Z,11.14
2023-02-19T02:46:13.610Z,11.02
2023-02-19T02:46:46.466Z,11.04
2023-02-19T02:47:36.703Z,11.04
2023-02-19T02:48:17.756Z,11.02
2023-02-19T02:48:55.508Z,11.05
2023-02-19T02:49:27.460Z,11.05
2023-02-19T02:50:06.004Z,11.04
2023-02-19T02:51:13.925Z,11.05
2023-02-19T02:51:50.828Z,11.02
2023-02-19T02:52:45.942Z,11.04
2023-02-19T02:53:46.971Z,11.00
2023-02-19T02:54:45.081Z,11.00
2023-02-19T02:55:16.955Z,10.95
2023-02-19T02:55:51.914Z,10.95
2023-02-19T02:56:25.719Z,10.97
2023-02-19T02:56:58.925Z,10.98
2023-02-19T02:57:30.552Z,10.92
2023-02-19T02:58:03.094Z,10.90
2023-02-19T02:58:35.410Z,10.88
2023-02-19T02:59:10.142Z,10.85
2023-02-19T02:59:42.994Z,10.85
2023-02-19T03:00:15.567Z,10.91
2023-02-19T03:01:11.767Z,10.92
2023-02-19T03:02:06.749Z,10.97
2023-02-19T03:02:40.169Z,10.94
2023-02-19T03:03:13.309Z,10.90
2023-02-19T03:03:48.124Z,10.95
2023-02-19T03:04:24.079Z,11.00
2023-02-19T03:05:28.331Z,11.04
2023-02-19T03:06:04.903Z,11.04
2023-02-19T03:06:38.176Z,11.04
2023-02-19T03:07:11.025Z,11.00
2023-02-19T03:08:17.162Z,10.98
2023-02-19T03:08:58.108Z,10.95
2023-02-19T03:09:40.741Z,10.97
2023-02-19T03:10:17.275Z,10.97
2023-02-19T03:10:56.413Z,10.98
2023-02-19T03:11:49.491Z,10.98
2023-02-19T03:12:40.938Z,10.90
2023-02-19T03:13:46.758Z,10.77
2023-02-19T03:14:41.196Z,10.70
2023-02-19T03:15:33.113Z,10.67
2023-02-19T03:16:32.655Z,10.61
2023-02-19T03:17:48.270Z,10.61
2023-02-19T03:18:40.306Z,10.60
2023-02-19T03:19:21.716Z,10.53
2023-02-19T03:19:56.746Z,10.53
2023-02-19T03:20:31.395Z,10.53
2023-02-19T03:21:05.486Z,10.53
2023-02-19T03:21:41.439Z,10.53
2023-02-19T03:22:20.394Z,10.50
2023-02-19T03:22:55.838Z,10.56
2023-02-19T03:23:49.870Z,10.53
2023-02-19T03:24:45.638Z,10.49
2023-02-19T03:25:39.587Z,10.49
2023-02-19T03:26:12.750Z,10.46
2023-02-19T03:26:46.700Z,10.44
2023-02-19T03:27:21.136Z,10.36
2023-02-19T03:27:57.496Z,10.33
2023-02-19T03:28:51.479Z,10.30
2023-02-19T03:29:26.418Z,10.40
2023-02-19T03:30:01.890Z,10.39
2023-02-19T03:30:37.876Z,10.36
2023-02-19T03:31:13.946Z,10.34
2023-02-19T03:31:47.092Z,10.34
2023-02-19T03:32:28.989Z,10.34
2023-02-19T03:33:32.607Z,10.37
2023-02-19T03:34:10.371Z,10.33
2023-02-19T03:34:47.936Z,10.33
2023-02-19T03:35:23.492Z,10.34
2023-02-19T03:36:02.444Z,10.36
2023-02-19T03:36:40.877Z,10.39
2023-02-19T03:37:37.061Z,10.39
2023-02-19T03:38:18.753Z,10.40
2023-02-19T03:38:59.663Z,10.36
2023-02-19T03:39:32.189Z,10.32
2023-02-19T03:40:04.628Z,10.33
2023-02-19T03:40:50.538Z,10.34
2023-02-19T03:41:45.552Z,10.30
2023-02-19T03:42:27.890Z,10.24
2023-02-19T03:43:08.418Z,10.24
2023-02-19T03:44:07.031Z,10.22
2023-02-19T03:45:13.933Z,10.16
2023-02-19T03:45:53.569Z,10.09
2023-02-19T03:47:03.530Z,10.03
2023-02-19T03:48:12.154Z,10.10
2023-02-19T03:48:57.481Z,10.13
2023-02-19T03:50:00.154Z,10.12
2023-02-19T03:50:46.843Z,10.19
2023-02-19T03:51:28.958Z,10.13
2023-02-19T03:52:00.553Z,10.08
2023-02-19T03:52:53.163Z,10.10
2023-02-19T03:53:38.322Z,10.12
2023-02-19T03:54:21.420Z,10.12
2023-02-19T03:55:01.946Z,10.13
2023-02-19T03:55:41.528Z,10.12
2023-02-19T03:56:26.620Z,10.14
2023-02-19T03:57:08.602Z,10.13
2023-02-19T03:58:04.956Z,10.12
2023-02-19T03:58:49.408Z,10.13
2023-02-19T03:59:32.541Z,10.13
2023-02-19T04:00:13.174Z,10.13
2023-02-19T04:01:00.459Z,10.10
2023-02-19T04:01:43.454Z,10.05
2023-02-19T04:02:24.849Z,10.06
2023-02-19T04:03:11.700Z,10.06
2023-02-19T04:03:46.322Z,10.09
2023-02-19T04:04:29.261Z,10.06
2023-02-19T04:05:08.173Z,10.06
2023-02-19T04:05:47.295Z,10.06
2023-02-19T04:06:25.542Z,10.05
2023-02-19T04:06:58.388Z,10.03
2023-02-19T04:07:35.443Z,10.03
2023-02-19T04:08:18.458Z,10.05
2023-02-19T04:08:54.728Z,10.02
2023-02-19T04:09:31.799Z,9.98
2023-02-19T04:10:04.932Z,9.96
2023-02-19T04:10:38.267Z,9.95
2023-02-19T04:11:11.461Z,9.95
2023-02-19T04:11:43.940Z,9.91
2023-02-19T04:12:16.912Z,9.93
2023-02-19T04:13:02.771Z,9.95
2023-02-19T04:13:45.943Z,9.92
2023-02-19T04:14:39.585Z,9.86
2023-02-19T04:15:16.239Z,9.88
2023-02-19T04:15:51.198Z,9.91
2023-02-19T04:16:28.093Z,9.93
2023-02-19T04:17:03.392Z,9.89
2023-02-19T04:17:41.394Z,9.88
2023-02-19T04:18:17.906Z,9.84
2023-02-19T04:18:54.717Z,9.85
2023-02-19T04:19:28.920Z,9.81
2023-02-19T04:20:05.519Z,9.82
2023-02-19T04:20:42.251Z,9.81
2023-02-19T04:21:15.340Z,9.81
2023-02-19T04:21:48.510Z,9.79
2023-02-19T04:22:21.988Z,9.75
2023-02-19T04:22:53.825Z,9.77
2023-02-19T04:23:28.271Z,9.78
2023-02-19T04:24:06.572Z,9.74
2023-02-19T04:24:43.242Z,9.71
2023-02-19T04:25:14.868Z,9.72
2023-02-19T04:25:52.459Z,9.68
2023-02-19T04:26:24.425Z,9.65
2023-02-19T04:26:56.299Z,9.58
2023-02-19T04:27:27.899Z,9.55
2023-02-19T04:27:59.691Z,9.54
2023-02-19T04:28:31.399Z,9.51
2023-02-19T04:29:03.167Z,9.58
2023-02-19T04:29:34.914Z,9.58
2023-02-19T04:30:09.447Z,9.58
2023-02-19T04:30:41.444Z,9.55
2023-02-19T04:31:13.976Z,9.55
2023-02-19T04:31:45.842Z,9.44
2023-02-19T04:32:17.535Z,9.44
2023-02-19T04:32:49.285Z,9.47
2023-02-19T04:33:20.981Z,9.41
2023-02-19T04:33:52.685Z,9.41
2023-02-19T04:34:24.942Z,9.38
2023-02-19T04:34:56.566Z,9.38
2023-02-19T04:35:28.194Z,9.38
2023-02-19T04:35:59.984Z,9.40
2023-02-19T04:36:32.308Z,9.34
2023-02-19T04:37:04.149Z,9.33
2023-02-19T04:37:35.728Z,9.27
2023-02-19T04:38:07.795Z,9.22
2023-02-19T04:38:39.467Z,9.23
2023-02-19T04:39:11.150Z,9.24
2023-02-19T04:39:42.769Z,9.26
2023-02-19T04:40:14.359Z,9.23
2023-02-19T04:40:46.907Z,9.23
2023-02-19T04:41:18.544Z,9.20
2023-02-19T04:41:50.248Z,9.20
2023-02-19T04:42:21.828Z,9.20
2023-02-19T04:42:53.634Z,9.16
2023-02-19T04:43:25.234Z,9.12
2023-02-19T04:43:56.895Z,9.09
2023-02-19T04:44:28.686Z,9.03
2023-02-19T04:45:00.367Z,9.09
2023-02-19T04:45:31.971Z,9.12
2023-02-19T04:46:03.754Z,9.04
2023-02-19T04:46:35.379Z,9.09
2023-02-19T04:47:06.987Z,9.04
2023-02-19T04:47:38.600Z,9.04
2023-02-19T04:48:10.608Z,8.99
2023-02-19T04:48:43.172Z,8.99
2023-02-19T04:49:14.918Z,8.93
2023-02-19T04:49:46.665Z,8.90
2023-02-19T04:50:18.442Z,8.90
2023-02-19T04:50:50.049Z,8.95
2023-02-19T04:51:21.832Z,8.89
2023-02-19T04:51:53.455Z,8.95
2023-02-19T04:52:25.250Z,8.92
2023-02-19T04:52:56.821Z,8.87
2023-02-19T04:53:28.497Z,8.89
2023-02-19T04:54:00.164Z,8.87
2023-02-19T04:54:31.804Z,8.85
2023-02-19T04:55:03.502Z,8.85
2023-02-19T04:55:39.167Z,8.85
2023-02-19T04:56:13.173Z,8.83
2023-02-19T04:56:44.744Z,8.80
2023-02-19T04:57:16.479Z,8.77
2023-02-19T04:57:48.227Z,8.76
2023-02-19T04:58:20.669Z,8.71
2023-02-19T04:58:52.291Z,8.72
2023-02-19T04:59:24.067Z,8.65
2023-02-19T04:59:55.721Z,8.58
2023-02-19T05:00:27.407Z,8.56
2023-02-19T05:00:59.136Z,8.56
2023-02-19T05:01:30.867Z,8.56
2023-02-19T05:02:02.867Z,8.56
2023-02-19T05:02:34.478Z,8.49
2023-02-19T05:03:06.225Z,8.48
2023-02-19T05:03:38.147Z,8.51
2023-02-19T05:04:09.793Z,8.54
2023-02-19T05:04:41.681Z,8.45
2023-02-19T05:05:13.355Z,8.46
2023-02-19T05:05:44.976Z,8.45
2023-02-19T05:06:16.804Z,8.44
2023-02-19T05:06:48.398Z,8.45
2023-02-19T05:07:19.973Z,8.41
2023-02-19T05:07:51.751Z,8.38
2023-02-19T05:08:23.587Z,8.35
2023-02-19T05:08:55.190Z,8.30
2023-02-19T05:09:26.762Z,8.31
2023-02-19T05:09:59.835Z,8.30
2023-02-19T05:10:31.567Z,8.31
2023-02-19T05:11:05.731Z,8.30
2023-02-19T05:11:37.528Z,8.30
2023-02-19T05:12:09.134Z,8.25
2023-02-19T05:12:40.881Z,8.20
2023-02-19T05:13:12.539Z,8.24
2023-02-19T05:13:44.388Z,8.24
2023-02-19T05:14:17.237Z,8.25
2023-02-19T05:14:49.250Z,8.23
2023-02-19T05:15:20.832Z,8.24
2023-02-19T05:16:07.387Z,8.33
2023-02-19T05:16:39.012Z,8.27
2023-02-19T05:17:10.658Z,8.28
2023-02-19T05:17:42.349Z,8.27
2023-02-19T05:18:13.982Z,8.30
2023-02-19T05:18:46.763Z,8.31
2023-02-19T05:19:18.556Z,8.37
2023-02-19T05:19:50.214Z,8.27
2023-02-19T05:20:23.087Z,8.30
2023-02-19T05:20:54.765Z,8.28
2023-02-19T05:21:26.605Z,8.30
2023-02-19T05:21:58.217Z,8.24
2023-02-19T05:22:30.382Z,8.17
2023-02-19T05:23:01.994Z,8.13
2023-02-19T05:23:33.869Z,8.07
2023-02-19T05:24:05.601Z,8.04
2023-02-19T05:24:37.212Z,8.07
2023-02-19T05:25:08.872Z,7.98
2023-02-19T05:25:43.225Z,7.94
2023-02-19T05:26:18.853Z,7.91
2023-02-19T05:26:51.143Z,7.94
2023-02-19T05:27:22.804Z,7.83
2023-02-19T05:28:14.352Z,7.85
2023-02-19T05:28:47.613Z,7.86
2023-02-19T05:29:19.479Z,7.73
2023-02-19T05:29:51.097Z,7.83
2023-02-19T05:30:22.869Z,7.86
2023-02-19T05:30:56.620Z,7.93
2023-02-19T05:31:28.963Z,7.93
2023-02-19T05:32:00.755Z,7.91
2023-02-19T05:32:34.566Z,7.87
2023-02-19T05:33:06.210Z,7.91
2023-02-19T05:33:38.180Z,7.96
2023-02-19T05:34:09.854Z,7.91
2023-02-19T05:34:41.449Z,7.89
2023-02-19T05:35:13.075Z,7.85
2023-02-19T05:35:47.774Z,7.82
2023-02-19T05:36:22.067Z,7.85
2023-02-19T05:36:54.301Z,7.82
2023-02-19T05:37:25.872Z,7.82
2023-02-19T05:37:57.449Z,7.82
2023-02-19T05:38:29.022Z,7.87
2023-02-19T05:39:00.796Z,7.89
2023-02-19T05:39:32.383Z,7.86
2023-02-19T05:40:04.335Z,7.93
2023-02-19T05:40:36.644Z,7.90
2023-02-19T05:41:20.439Z,7.90
2023-02-19T05:41:52.155Z,7.90
2023-02-19T05:42:23.742Z,7.93
2023-02-19T05:42:55.331Z,7.97
2023-02-19T05:43:27.002Z,7.97
2023-02-19T05:43:59.001Z,7.96
2023-02-19T05:44:30.639Z,7.96
2023-02-19T05:45:02.313Z,7.93
2023-02-19T05:45:35.042Z,7.93
2023-02-19T05:46:07.760Z,7.94
2023-02-19T05:46:39.455Z,7.96
2023-02-19T05:47:11.096Z,8.00
2023-02-19T05:47:42.721Z,8.06
2023-02-19T05:48:14.488Z,8.07
2023-02-19T05:48:47.545Z,8.10
2023-02-19T05:49:19.167Z,8.11
2023-02-19T05:49:50.777Z,8.11
2023-02-19T05:50:22.411Z,8.06
2023-02-19T05:50:54.071Z,8.01
2023-02-19T05:51:27.169Z,8.04
2023-02-19T05:51:58.944Z,8.03
2023-02-19T05:52:30.556Z,7.97
2023-02-19T05:53:05.756Z,8.04
2023-02-19T05:53:38.176Z,8.08
2023-02-19T05:54:10.205Z,8.20
2023-02-19T05:54:41.922Z,8.25
2023-02-19T05:55:13.531Z,8.31
2023-02-19T05:55:45.136Z,8.28
2023-02-19T05:56:25.765Z,8.30
2023-02-19T05:56:57.813Z,8.33
2023-02-19T05:57:29.527Z,8.33
2023-02-19T05:58:01.552Z,8.30
2023-02-19T05:58:33.152Z,8.28
2023-02-19T05:59:18.102Z,8.30
2023-02-19T05:59:49.718Z,8.31
2023-02-19T06:00:21.792Z,8.31
2023-02-19T06:00:53.925Z,8.30
2023-02-19T06:01:27.897Z,8.37
2023-02-19T06:01:59.695Z,8.41
2023-02-19T06:02:32.806Z,8.37
2023-02-19T06:03:04.570Z,8.45
2023-02-19T06:03:36.208Z,8.45
2023-02-19T06:04:10.446Z,8.46
2023-02-19T06:04:42.055Z,8.54
2023-02-19T06:05:13.996Z,8.59
2023-02-19T06:05:45.657Z,8.62
2023-02-19T06:06:19.429Z,8.64
2023-02-19T06:06:51.156Z,8.71
2023-02-19T06:07:22.867Z,8.82
2023-02-19T06:07:54.536Z,8.89
2023-02-19T06:08:26.129Z,8.89
2023-02-19T06:08:58.136Z,8.83
2023-02-19T06:09:29.758Z,8.80
2023-02-19T06:10:01.591Z,8.83
2023-02-19T06:10:33.272Z,8.92
2023-02-19T06:11:05.102Z,8.93
2023-02-19T06:11:37.728Z,8.87
2023-02-19T06:12:09.309Z,8.83
2023-02-19T06:12:40.940Z,8.86
2023-02-19T06:13:12.783Z,8.79
2023-02-19T06:13:44.517Z,8.73
2023-02-19T06:14:16.195Z,8.69
2023-02-19T06:14:48.128Z,8.72
2023-02-19T06:15:20.167Z,8.72
2023-02-19T06:15:51.793Z,8.71
2023-02-19T06:16:23.859Z,8.79
2023-02-19T06:16:55.516Z,8.72
2023-02-19T06:17:27.152Z,8.72
2023-02-19T06:17:58.836Z,8.64
2023-02-19T06:18:30.499Z,8.56
2023-02-19T06:19:04.058Z,8.51
2023-02-19T06:19:35.662Z,8.54
2023-02-19T06:20:08.057Z,8.61
2023-02-19T06:20:39.961Z,8.55
2023-02-19T06:21:12.605Z,8.49
2023-02-19T06:21:44.508Z,8.58
2023-02-19T06:22:16.745Z,8.56
2023-02-19T06:22:50.713Z,8.58
2023-02-19T06:23:22.300Z,8.62
2023-02-19T06:23:54.288Z,8.49
2023-02-19T06:24:25.898Z,8.55
2023-02-19T06:24:57.740Z,8.59
2023-02-19T06:25:29.415Z,8.55
2023-02-19T06:26:21.856Z,8.54
2023-02-19T06:26:53.506Z,8.62
2023-02-19T06:27:25.186Z,8.54
2023-02-19T06:27:56.873Z,8.49
2023-02-19T06:28:28.489Z,8.51
2023-02-19T06:29:00.232Z,8.44
2023-02-19T06:29:32.652Z,8.38
2023-02-19T06:30:04.700Z,8.45
2023-02-19T06:30:37.026Z,8.51
2023-02-19T06:31:10.261Z,8.56
2023-02-19T06:31:42.224Z,8.55
2023-02-19T06:32:13.999Z,8.54
2023-02-19T06:32:45.714Z,8.52
2023-02-19T06:33:17.296Z,8.51
2023-02-19T06:33:50.717Z,8.52
2023-02-19T06:34:22.460Z,8.56
2023-02-19T06:34:54.090Z,8.56
2023-02-19T06:35:25.731Z,8.55
2023-02-19T06:36:02.343Z,8.62
2023-02-19T06:36:34.511Z,8.61
2023-02-19T06:37:06.166Z,8.48
2023-02-19T06:37:37.778Z,8.49
2023-02-19T06:38:09.431Z,8.58
2023-02-19T06:38:41.455Z,8.66
2023-02-19T06:39:13.161Z,8.62
2023-02-19T06:39:45.050Z,8.59
2023-02-19T06:40:16.921Z,8.61
2023-02-19T06:40:48.560Z,8.65
2023-02-19T06:41:20.237Z,8.66
2023-02-19T06:41:54.768Z,8.71
2023-02-19T06:42:26.418Z,8.65
2023-02-19T06:42:58.052Z,8.62
2023-02-19T06:43:31.720Z,8.65
2023-02-19T06:44:03.426Z,8.66
2023-02-19T06:44:35.188Z,8.65
2023-02-19T06:45:07.056Z,8.72
2023-02-19T06:45:38.681Z,8.75
2023-02-19T06:46:12.295Z,8.85
2023-02-19T06:46:43.938Z,8.85
2023-02-19T06:47:15.559Z,8.86
2023-02-19T06:47:47.165Z,8.82
2023-02-19T06:48:18.781Z,8.75
2023-02-19T06:48:51.087Z,8.80
2023-02-19T06:49:22.933Z,8.85
2023-02-19T06:49:54.560Z,8.89
2023-02-19T06:50:26.210Z,8.90
2023-02-19T06:50:57.907Z,9.00
2023-02-19T06:51:29.916Z,9.03
2023-02-19T06:52:03.689Z,9.04
2023-02-19T06:52:35.332Z,8.99
2023-02-19T06:53:07.010Z,8.99
2023-02-19T06:53:38.786Z,8.93
2023-02-19T06:54:10.378Z,8.97
2023-02-19T06:54:41.988Z,8.99
2023-02-19T06:55:13.620Z,9.03
2023-02-19T06:55:45.324Z,9.03
2023-02-19T06:56:33.256Z,9.04
2023-02-19T06:57:05.048Z,9.04
2023-02-19T06:57:36.624Z,9.10
2023-02-19T06:58:08.399Z,9.07
2023-02-19T06:58:39.980Z,9.16
2023-02-19T06:59:19.004Z,9.16
2023-02-19T06:59:50.614Z,9.17
2023-02-19T07:00:22.339Z,9.16
2023-02-19T07:00:54.486Z,9.19
2023-02-19T07:01:27.512Z,9.22
2023-02-19T07:01:59.217Z,9.20
2023-02-19T07:02:30.947Z,9.20
2023-02-19T07:03:05.231Z,9.19
2023-02-19T07:03:37.151Z,9.19
2023-02-19T07:04:09.349Z,9.19
2023-02-19T07:04:40.987Z,9.16
2023-02-19T07:05:12.685Z,9.14
2023-02-19T07:05:44.418Z,9.10
2023-02-19T07:06:16.159Z,9.10
2023-02-19T07:06:47.858Z,9.13
2023-02-19T07:07:19.477Z,9.07
2023-02-19T07:07:51.176Z,9.13
2023-02-19T07:08:22.744Z,9.07
2023-02-19T07:08:58.461Z,9.09
2023-02-19T07:09:30.185Z,9.09
2023-02-19T07:10:01.778Z,9.14
2023-02-19T07:10:33.515Z,9.09
2023-02-19T07:11:05.373Z,9.17
2023-02-19T07:11:39.054Z,9.09
2023-02-19T07:12:10.678Z,9.06
2023-02-19T07:12:42.317Z,9.13
2023-02-19T07:13:13.912Z,9.13
2023-02-19T07:13:45.875Z,9.13
2023-02-19T07:14:17.886Z,9.09
2023-02-19T07:14:49.462Z,9.14
2023-02-19T07:15:21.039Z,9.14
2023-02-19T07:15:58.015Z,9.23
2023-02-19T07:16:29.934Z,9.20
2023-02-19T07:17:01.534Z,9.17
2023-02-19T07:17:34.782Z,9.19
2023-02-19T07:18:10.402Z,9.14
2023-02-19T07:18:42.482Z,9.17
2023-02-19T07:19:15.286Z,9.12
2023-02-19T07:19:46.906Z,9.10
2023-02-19T07:20:18.627Z,9.07
2023-02-19T07:20:50.252Z,9.12
2023-02-19T07:21:21.864Z,9.07
2023-02-19T07:21:53.664Z,9.10
2023-02-19T07:22:25.261Z,9.28
2023-02-19T07:22:57.613Z,9.40
2023-02-19T07:23:29.320Z,9.45
2023-02-19T07:24:00.916Z,9.55
2023-02-19T07:24:32.553Z,9.93
2023-02-19T07:25:04.273Z,10.24
2023-02-19T07:25:37.806Z,10.39
2023-02-19T07:26:11.638Z,10.57
2023-02-19T07:26:43.299Z,10.70
2023-02-19T07:27:14.853Z,10.80
2023-02-19T07:27:46.459Z,10.88
2023-02-19T07:28:18.561Z,11.02
2023-02-19T07:28:51.154Z,11.11
2023-02-19T07:29:22.796Z,11.14
2023-02-19T07:29:54.393Z,11.26
2023-02-19T07:30:26.210Z,11.29
2023-02-19T07:31:02.182Z,11.33
2023-02-19T07:31:33.999Z,11.36
2023-02-19T07:32:05.719Z,11.38
2023-02-19T07:32:41.302Z,11.36
2023-02-19T07:33:12.941Z,11.33
2023-02-19T07:33:45.588Z,11.29
2023-02-19T07:34:17.256Z,11.32
2023-02-19T07:34:49.101Z,11.26
2023-02-19T07:35:20.685Z,11.19
2023-02-19T07:35:52.500Z,11.19
2023-02-19T07:36:24.906Z,11.18
2023-02-19T07:36:56.606Z,11.15
2023-02-19T07:37:28.285Z,11.12
2023-02-19T07:37:59.893Z,11.14
2023-02-19T07:38:31.550Z,11.11
2023-02-19T07:39:03.876Z,11.11